Time;durP1;ratioP1;P1;durP2;ratioP2;P2;SDS_P1;SDS_P2;PMS_P1;PMS_P2;Temp;Humidity;BMP_temperature;BMP_pressure;BME280_temperature;BME280_humidity;BME280_pressure;Samples;Min_cycle;Max_cycle;Signal;HPM_P1;HPM_P2
2021/01/21 00:02:09;;;;;;;65.25;26.55;;;-5.30;67.30;;;;;;4956082;29;20119;-75
2021/01/21 00:04:35;;;;;;;63.90;26.85;;;-5.30;67.70;;;;;;4956456;29;20561;-75
2021/01/21 00:07:01;;;;;;;63.10;26.35;;;-5.20;67.90;;;;;;4956123;29;20078;-75
2021/01/21 00:09:27;;;;;;;72.07;27.67;;;-5.20;68.00;;;;;;4956073;29;20034;-75
2021/01/21 00:11:52;;;;;;;67.68;27.77;;;-5.20;68.00;;;;;;4956033;29;20038;-75
2021/01/21 00:14:18;;;;;;;67.95;26.83;;;-5.20;68.10;;;;;;4956662;29;20027;-76
2021/01/21 00:16:44;;;;;;;64.60;28.15;;;-5.10;68.20;;;;;;4939138;29;20115;-74
2021/01/21 00:19:09;;;;;;;73.32;28.88;;;-5.10;68.30;;;;;;4956170;29;20114;-75
2021/01/21 00:21:35;;;;;;;69.72;30.60;;;-5.10;68.20;;;;;;4955269;28;20374;-75
2021/01/21 00:24:01;;;;;;;65.25;28.80;;;-5.10;68.30;;;;;;4938749;29;20117;-75
2021/01/21 00:26:27;;;;;;;67.82;27.73;;;-5.10;68.40;;;;;;4955770;29;20019;-75
2021/01/21 00:28:53;;;;;;;76.38;29.20;;;-5.10;68.60;;;;;;4955929;29;20054;-75
2021/01/21 00:31:19;;;;;;;64.10;27.45;;;-5.00;68.70;;;;;;4955567;29;20023;-76
2021/01/21 00:33:45;;;;;;;67.13;27.00;;;-5.00;68.80;;;;;;4961817;28;20102;-76
2021/01/21 00:36:12;;;;;;;67.93;27.25;;;-5.00;68.80;;;;;;4957914;28;20030;-76
2021/01/21 00:38:37;;;;;;;72.32;27.85;;;-5.00;68.90;;;;;;4958182;28;20030;-75
2021/01/21 00:41:03;;;;;;;68.10;26.15;;;-5.00;69.10;;;;;;4974799;28;20034;-76
2021/01/21 00:43:29;;;;;;;61.03;26.30;;;-4.90;69.20;;;;;;4974688;28;20106;-75
2021/01/21 00:45:56;;;;;;;67.75;27.33;;;-4.90;69.20;;;;;;4974656;28;20023;-76
2021/01/21 00:48:22;;;;;;;63.03;26.52;;;-4.80;69.40;;;;;;4974316;28;20023;-76
2021/01/21 00:50:48;;;;;;;65.85;26.30;;;-4.80;69.40;;;;;;4974265;28;20027;-76
2021/01/21 00:53:14;;;;;;;71.57;27.33;;;-4.70;69.50;;;;;;4957132;28;20030;-75
2021/01/21 00:55:40;;;;;;;72.45;27.58;;;-4.70;69.50;;;;;;4957899;28;20362;-74
2021/01/21 00:58:05;;;;;;;74.30;28.48;;;-4.70;69.50;;;;;;4974390;28;20033;-75
2021/01/21 01:00:31;;;;;;;70.18;28.63;;;-4.70;70.00;;;;;;4974915;28;20034;-75
2021/01/21 01:02:58;;;;;;;66.95;27.58;;;-4.60;69.40;;;;;;4974095;28;20023;-75
2021/01/21 01:05:23;;;;;;;70.97;27.80;;;-4.60;69.60;;;;;;4972891;28;20359;-75
2021/01/21 01:07:49;;;;;;;71.57;28.55;;;-4.60;69.60;;;;;;4973280;28;20086;-75
2021/01/21 01:10:15;;;;;;;68.45;27.67;;;-4.60;69.60;;;;;;4974343;28;20034;-76
2021/01/21 01:12:41;;;;;;;69.95;28.50;;;-4.70;69.30;;;;;;4956945;28;20030;-76
2021/01/21 01:15:08;;;;;;;72.18;29.45;;;-4.70;69.50;;;;;;4974309;28;20026;-76
2021/01/21 01:17:34;;;;;;;69.35;28.10;;;-4.70;69.80;;;;;;4956841;28;20081;-76
2021/01/21 01:20:00;;;;;;;66.60;26.77;;;-4.70;69.90;;;;;;4973961;28;20035;-74
2021/01/21 01:22:26;;;;;;;64.40;27.13;;;-4.60;69.90;;;;;;4962148;28;20126;-75
2021/01/21 01:24:52;;;;;;;57.97;24.13;;;-4.70;69.70;;;;;;4972781;28;20027;-76
2021/01/21 01:27:17;;;;;;;52.28;22.45;;;-4.70;69.90;;;;;;4957078;28;20081;-76
2021/01/21 01:29:45;;;;;;;58.45;23.35;;;-4.70;69.90;;;;;;4974445;28;20031;-75
2021/01/21 01:32:11;;;;;;;52.88;23.10;;;-4.70;69.90;;;;;;4972647;28;20023;-76
2021/01/21 01:34:37;;;;;;;55.22;22.52;;;-4.70;70.10;;;;;;4956650;28;20474;-75
2021/01/21 01:37:04;;;;;;;49.85;22.23;;;-4.70;70.20;;;;;;4973798;28;20051;-75
2021/01/21 01:39:30;;;;;;;48.28;21.10;;;-4.60;70.30;;;;;;4956415;28;20479;-75
2021/01/21 01:41:56;;;;;;;53.97;22.77;;;-4.60;70.20;;;;;;4974892;28;20039;-74
2021/01/21 01:44:21;;;;;;;49.63;21.48;;;-4.60;70.20;;;;;;4956435;28;20031;-74
2021/01/21 01:46:48;;;;;;;47.67;20.83;;;-4.60;70.20;;;;;;4973891;28;20027;-75
2021/01/21 01:49:13;;;;;;;49.58;22.13;;;-4.50;70.00;;;;;;4974080;28;20450;-75
2021/01/21 01:51:43;;;;;;;52.20;21.65;;;-4.60;70.00;;;;;;4973675;28;20031;-75
2021/01/21 01:54:10;;;;;;;52.45;21.55;;;-4.60;70.20;;;;;;4973798;28;20027;-78
2021/01/21 01:56:36;;;;;;;51.13;21.40;;;-4.60;70.80;;;;;;4975341;28;20505;-79
2021/01/21 01:59:02;;;;;;;57.15;22.42;;;-4.60;70.20;;;;;;4974932;28;20026;-79
2021/01/21 02:01:29;;;;;;;52.80;22.55;;;-4.60;70.30;;;;;;4974835;28;20034;-79
2021/01/21 02:03:55;;;;;;;44.10;19.98;;;-4.60;70.40;;;;;;4975333;28;20026;-80
2021/01/21 02:06:21;;;;;;;50.30;21.20;;;-4.60;70.40;;;;;;4974710;28;20038;-79
2021/01/21 02:08:47;;;;;;;47.78;21.73;;;-4.50;70.60;;;;;;4956341;28;20031;-79
2021/01/21 02:11:39;;;;;;;43.63;19.75;;;-4.50;70.60;;;;;;4956167;28;20030;-79
2021/01/21 02:14:43;;;;;;;46.10;20.60;;;-4.50;70.20;;;;;;4973837;28;20030;-80
2021/01/21 02:17:19;;;;;;;41.83;20.52;;;-4.60;70.20;;;;;;4962512;28;20042;-78
2021/01/21 02:20:06;;;;;;;42.05;19.30;;;-4.60;70.10;;;;;;4974108;28;20478;-80
2021/01/21 02:23:05;;;;;;;44.17;20.05;;;-4.60;70.00;;;;;;4973479;28;20023;-79
2021/01/21 02:25:45;;;;;;;46.88;20.77;;;-4.70;70.30;;;;;;4966240;28;20034;-79
2021/01/21 02:28:10;;;;;;;42.20;20.63;;;-4.60;70.50;;;;;;4974777;28;20031;-74
2021/01/21 02:31:14;;;;;;;43.67;19.85;;;-4.60;70.50;;;;;;4961220;28;20421;-75
2021/01/21 02:33:56;;;;;;;46.63;20.65;;;-4.60;70.40;;;;;;4967168;28;20051;-74
2021/01/21 02:36:36;;;;;;;51.97;21.15;;;-4.70;70.30;;;;;;4973227;28;20062;-74
2021/01/21 02:39:03;;;;;;;46.22;20.40;;;-4.70;70.50;;;;;;4956228;28;20081;-76
2021/01/21 02:41:32;;;;;;;46.45;20.52;;;-4.60;70.40;;;;;;4972101;28;20034;-75
2021/01/21 02:43:58;;;;;;;43.47;20.73;;;-4.70;70.40;;;;;;4973828;28;20062;-74
2021/01/21 02:46:24;;;;;;;47.70;21.63;;;-4.70;70.50;;;;;;4959813;28;20064;-75
2021/01/21 02:48:51;;;;;;;46.10;20.52;;;-4.60;70.70;;;;;;4977315;28;20040;-75
2021/01/21 02:51:51;;;;;;;41.53;19.80;;;-4.70;70.60;;;;;;4976999;28;20035;-75
2021/01/21 02:54:32;;;;;;;43.17;19.60;;;-4.70;70.70;;;;;;4951213;28;20097;-76
2021/01/21 02:57:06;;;;;;;45.60;21.73;;;-4.60;70.80;;;;;;4975565;28;20034;-76
2021/01/21 02:59:39;;;;;;;49.75;20.90;;;-4.60;70.80;;;;;;4976464;28;20034;-76
2021/01/21 03:02:07;;;;;;;47.50;19.60;;;-4.60;70.80;;;;;;4959136;28;20031;-76
2021/01/21 03:04:36;;;;;;;45.30;20.38;;;-4.60;70.80;;;;;;4959342;28;20118;-76
2021/01/21 03:07:03;;;;;;;46.10;20.67;;;-4.60;70.80;;;;;;4976652;28;20743;-76
2021/01/21 03:09:29;;;;;;;44.10;20.42;;;-4.60;70.80;;;;;;4976739;28;20031;-75
2021/01/21 03:12:24;;;;;;;47.58;21.45;;;-4.60;71.00;;;;;;4976349;28;20027;-75
2021/01/21 03:14:53;;;;;;;44.58;19.90;;;-4.50;71.10;;;;;;4977245;28;20029;-80
2021/01/21 03:17:23;;;;;;;46.42;20.42;;;-4.50;71.00;;;;;;4977868;28;20041;-79
2021/01/21 03:19:49;;;;;;;42.85;20.27;;;-4.50;71.00;;;;;;4960607;28;20125;-79
2021/01/21 03:22:15;;;;;;;48.10;19.50;;;-4.50;71.10;;;;;;4978073;28;20119;-79
2021/01/21 03:24:41;;;;;;;44.88;19.33;;;-4.50;71.20;;;;;;4978181;28;20023;-80
2021/01/21 03:27:07;;;;;;;45.75;19.83;;;-4.50;71.10;;;;;;4985498;28;20058;-79
2021/01/21 03:29:32;;;;;;;46.50;19.90;;;-4.50;71.20;;;;;;4983624;28;20085;-75
2021/01/21 03:31:58;;;;;;;45.70;21.95;;;-4.50;71.30;;;;;;4977366;28;20362;-79
2021/01/21 03:34:24;;;;;;;43.22;20.60;;;-4.50;71.40;;;;;;4977987;28;20047;-80
2021/01/21 03:36:50;;;;;;;42.47;19.83;;;-4.50;71.40;;;;;;4960258;28;20063;-80
2021/01/21 03:39:16;;;;;;;46.83;21.13;;;-4.50;71.40;;;;;;4987419;28;20095;-79
2021/01/21 03:41:41;;;;;;;49.05;20.88;;;-4.40;71.40;;;;;;4993758;28;20099;-76
2021/01/21 03:44:07;;;;;;;48.13;21.35;;;-4.50;71.50;;;;;;4993898;28;20243;-81
2021/01/21 03:46:33;;;;;;;42.58;20.67;;;-4.40;71.70;;;;;;4982993;28;20014;-79
2021/01/21 03:48:59;;;;;;;47.30;21.10;;;-4.40;71.80;;;;;;4997076;28;20041;-78
2021/01/21 03:51:25;;;;;;;43.70;21.60;;;-4.40;71.80;;;;;;4978472;28;20027;-80
2021/01/21 03:53:51;;;;;;;43.78;20.67;;;-4.40;72.00;;;;;;4976547;28;20054;-81
2021/01/21 03:56:17;;;;;;;50.03;22.85;;;-4.30;72.20;;;;;;4976770;28;20376;-79
2021/01/21 03:58:42;;;;;;;52.53;23.25;;;-4.30;72.20;;;;;;4977901;28;20037;-79
2021/01/21 04:01:08;;;;;;;50.17;22.67;;;-4.30;72.30;;;;;;4976987;28;20082;-80
2021/01/21 04:03:34;;;;;;;49.55;20.98;;;-4.30;72.30;;;;;;4977071;28;20027;-79
2021/01/21 04:06:00;;;;;;;52.85;22.98;;;-4.20;72.50;;;;;;4976817;28;20114;-79
2021/01/21 04:08:27;;;;;;;47.00;20.52;;;-4.20;72.60;;;;;;4958244;28;20037;-76
2021/01/21 04:10:53;;;;;;;49.88;20.30;;;-4.10;72.80;;;;;;4975024;28;20388;-75
2021/01/21 04:13:19;;;;;;;50.72;21.90;;;-4.00;72.90;;;;;;4974938;28;20031;-75
2021/01/21 04:15:46;;;;;;;50.83;21.63;;;-4.00;72.70;;;;;;4974960;28;20382;-75
2021/01/21 04:18:12;;;;;;;49.45;21.15;;;-4.00;72.80;;;;;;4974980;28;20031;-75
2021/01/21 04:20:38;;;;;;;48.10;21.35;;;-4.00;72.70;;;;;;4973616;28;20062;-75
2021/01/21 04:23:04;;;;;;;46.95;21.13;;;-4.00;72.80;;;;;;4974709;28;20035;-75
2021/01/21 04:25:30;;;;;;;47.53;21.45;;;-3.90;72.90;;;;;;4974841;28;20030;-74
2021/01/21 04:27:56;;;;;;;48.28;22.15;;;-4.00;72.80;;;;;;4974678;28;20039;-75
2021/01/21 04:30:22;;;;;;;49.47;21.92;;;-3.90;72.80;;;;;;4974683;28;20075;-76
2021/01/21 04:32:47;;;;;;;47.58;21.20;;;-3.90;72.90;;;;;;4974721;28;20723;-76
2021/01/21 04:35:13;;;;;;;51.80;22.30;;;-3.90;73.10;;;;;;4956243;28;20059;-76
2021/01/21 04:37:39;;;;;;;50.63;21.73;;;-3.90;73.00;;;;;;4955229;29;20523;-76
2021/01/21 04:40:05;;;;;;;48.78;21.88;;;-3.90;73.10;;;;;;4955034;29;20027;-76
2021/01/21 04:42:31;;;;;;;49.22;20.92;;;-3.90;73.00;;;;;;4953751;29;20035;-76
2021/01/21 04:44:57;;;;;;;50.08;20.90;;;-3.90;73.20;;;;;;4954842;29;20422;-76
2021/01/21 04:47:25;;;;;;;54.45;24.60;;;-3.90;73.20;;;;;;4954997;29;20475;-76
2021/01/21 04:49:53;;;;;;;60.97;25.33;;;-3.90;73.30;;;;;;4954721;29;20039;-76
2021/01/21 04:52:20;;;;;;;51.05;21.73;;;-3.90;73.40;;;;;;4954621;29;20035;-76
2021/01/21 04:54:54;;;;;;;47.60;20.70;;;-3.90;73.60;;;;;;4954693;29;20035;-76
2021/01/21 04:57:38;;;;;;;60.63;22.63;;;-3.90;73.70;;;;;;4953570;29;20035;-76
2021/01/21 05:00:05;;;;;;;53.95;21.55;;;-3.90;73.70;;;;;;4954607;29;20027;-77
2021/01/21 05:02:32;;;;;;;50.38;20.42;;;-4.00;73.60;;;;;;4954730;29;20038;-75
2021/01/21 05:04:58;;;;;;;50.75;22.00;;;-4.00;73.70;;;;;;4953489;29;20696;-76
2021/01/21 05:07:25;;;;;;;49.35;21.00;;;-4.00;73.70;;;;;;4953383;28;20031;-75
2021/01/21 05:09:51;;;;;;;49.13;21.60;;;-4.00;73.90;;;;;;4954763;29;20110;-75
2021/01/21 05:12:17;;;;;;;47.50;21.48;;;-4.00;73.90;;;;;;4954404;29;20087;-76
2021/01/21 05:14:43;;;;;;;49.10;20.55;;;-4.00;74.10;;;;;;4954134;29;20035;-76
2021/01/21 05:17:10;;;;;;;49.70;19.48;;;-4.00;74.20;;;;;;4954240;29;20524;-75
2021/01/21 05:19:36;;;;;;;53.30;21.90;;;-4.00;74.30;;;;;;4953800;29;20063;-74
2021/01/21 05:22:02;;;;;;;52.67;21.30;;;-4.00;74.30;;;;;;4953972;29;20375;-75
2021/01/21 05:24:28;;;;;;;46.60;20.42;;;-4.00;74.30;;;;;;4953685;29;20023;-76
2021/01/21 05:26:55;;;;;;;46.80;21.00;;;-4.00;74.50;;;;;;4954131;29;20493;-75
2021/01/21 05:29:21;;;;;;;48.38;21.55;;;-4.00;74.60;;;;;;4953702;29;20023;-75
2021/01/21 05:31:47;;;;;;;54.28;23.42;;;-4.00;74.70;;;;;;4953890;29;20042;-76
2021/01/21 05:34:17;;;;;;;46.35;20.58;;;-4.00;74.80;;;;;;4959146;28;20398;-75
2021/01/21 05:36:46;;;;;;;47.15;21.30;;;-3.90;75.10;;;;;;4954100;28;20058;-75
2021/01/21 05:39:12;;;;;;;53.45;22.10;;;-3.90;75.20;;;;;;4954055;29;20031;-77
2021/01/21 05:41:38;;;;;;;50.10;22.23;;;-3.90;75.10;;;;;;4954245;29;20124;-75
2021/01/21 05:44:07;;;;;;;55.80;22.90;;;-3.90;75.30;;;;;;4969022;28;20477;-76
2021/01/21 05:46:35;;;;;;;52.20;22.38;;;-3.90;75.40;;;;;;4953946;29;20027;-75
2021/01/21 05:49:04;;;;;;;50.13;21.70;;;-3.90;75.50;;;;;;4968545;28;20023;-75
2021/01/21 05:51:30;;;;;;;54.97;20.50;;;-3.90;75.40;;;;;;4954111;29;20541;-76
2021/01/21 05:53:56;;;;;;;52.15;21.88;;;-3.90;75.70;;;;;;4954102;29;20039;-75
2021/01/21 05:56:24;;;;;;;44.90;20.20;;;-3.80;75.80;;;;;;4968574;28;20035;-76
2021/01/21 05:58:51;;;;;;;48.40;20.38;;;-3.80;75.80;;;;;;4968925;28;20133;-76
2021/01/21 06:01:18;;;;;;;45.80;21.38;;;-3.80;76.00;;;;;;4953869;29;20031;-76
2021/01/21 06:03:44;;;;;;;47.90;21.30;;;-3.70;76.10;;;;;;4953745;29;20197;-76
2021/01/21 06:06:13;;;;;;;51.33;21.70;;;-3.70;76.30;;;;;;4953646;29;20115;-76
2021/01/21 06:08:40;;;;;;;53.50;23.17;;;-3.70;76.30;;;;;;4952157;29;20034;-76
2021/01/21 06:11:11;;;;;;;51.10;21.63;;;-3.60;76.50;;;;;;4953427;29;20034;-77
2021/01/21 06:13:44;;;;;;;55.28;23.48;;;-3.60;76.50;;;;;;4953436;29;20482;-76
2021/01/21 06:16:13;;;;;;;45.28;21.42;;;-3.50;76.60;;;;;;4953160;29;20032;-76
2021/01/21 06:18:38;;;;;;;45.10;21.00;;;-3.50;76.70;;;;;;4954694;28;20039;-81
2021/01/21 06:21:06;;;;;;;47.97;21.52;;;-3.40;76.80;;;;;;4956315;29;20027;-81
2021/01/21 06:23:33;;;;;;;47.30;21.38;;;-3.40;76.80;;;;;;4958803;29;20724;-82
2021/01/21 06:26:00;;;;;;;43.63;21.25;;;-3.30;76.80;;;;;;4973372;28;20027;-83
2021/01/21 06:28:27;;;;;;;51.22;21.13;;;-3.30;76.80;;;;;;4958850;29;20216;-84
2021/01/21 06:31:00;;;;;;;43.30;20.65;;;-3.30;76.80;;;;;;4959594;29;20027;-80
2021/01/21 06:33:41;;;;;;;45.83;20.23;;;-3.30;76.80;;;;;;4961760;28;20062;-81
2021/01/21 06:36:13;;;;;;;53.40;20.00;;;-3.30;76.80;;;;;;4976953;28;20023;-82
2021/01/21 06:38:41;;;;;;;48.38;21.17;;;-3.30;76.80;;;;;;4976602;28;20030;-82
2021/01/21 06:41:15;;;;;;;51.28;20.65;;;-3.30;76.90;;;;;;4956918;28;20097;-82
2021/01/21 06:43:41;;;;;;;47.72;21.30;;;-3.30;76.90;;;;;;4978109;28;20046;-80
2021/01/21 06:46:08;;;;;;;50.67;21.70;;;-3.30;77.10;;;;;;4960215;28;20718;-82
2021/01/21 06:48:34;;;;;;;56.50;22.15;;;-3.30;77.20;;;;;;4977676;28;20018;-82
2021/01/21 06:51:06;;;;;;;46.25;20.27;;;-3.20;77.40;;;;;;4977601;28;20517;-79
2021/01/21 06:53:33;;;;;;;47.20;21.33;;;-3.20;77.40;;;;;;4977505;28;20378;-80
2021/01/21 06:56:00;;;;;;;48.78;21.10;;;-3.20;77.50;;;;;;4961484;28;20474;-87
2021/01/21 06:58:47;;;;;;;47.22;20.15;;;-3.20;77.70;;;;;;4979452;28;20102;-85
2021/01/21 07:01:31;;;;;;;49.10;20.42;;;-3.10;77.80;;;;;;4960549;28;20470;-86
2021/01/21 07:04:20;;;;;;;45.60;20.60;;;-3.10;77.60;;;;;;4957860;28;20094;-76
2021/01/21 07:06:52;;;;;;;50.53;20.77;;;-3.20;77.70;;;;;;4976127;28;20027;-75
2021/01/21 07:09:26;;;;;;;46.70;20.48;;;-3.10;77.60;;;;;;4976269;28;20018;-78
2021/01/21 07:11:57;;;;;;;57.80;21.67;;;-3.20;77.80;;;;;;4958513;28;20034;-76
2021/01/21 07:14:34;;;;;;;51.33;22.35;;;-3.10;78.10;;;;;;4957593;28;20355;-77
2021/01/21 07:17:05;;;;;;;47.08;20.25;;;-3.10;78.30;;;;;;4975687;28;20035;-77
2021/01/21 07:19:45;;;;;;;47.08;21.35;;;-3.00;78.60;;;;;;4957828;28;20102;-76
2021/01/21 07:22:18;;;;;;;46.75;20.65;;;-3.00;78.60;;;;;;4975184;28;20090;-76
2021/01/21 07:25:00;;;;;;;47.78;20.80;;;-2.90;78.70;;;;;;4974621;28;20026;-77
2021/01/21 07:27:29;;;;;;;47.28;19.20;;;-2.80;79.00;;;;;;4975148;28;20035;-78
2021/01/21 07:30:16;;;;;;;54.20;20.67;;;-2.70;79.00;;;;;;4956258;28;20031;-76
2021/01/21 07:32:42;;;;;;;50.83;22.88;;;-2.70;78.90;;;;;;4975180;28;20706;-75
2021/01/21 07:35:33;;;;;;;46.70;20.67;;;-2.60;79.00;;;;;;4957538;28;20062;-76
2021/01/21 07:37:59;;;;;;;50.28;20.60;;;-2.60;79.00;;;;;;4957388;28;20027;-75
2021/01/21 07:40:49;;;;;;;50.58;21.65;;;-2.50;79.20;;;;;;4976168;28;20077;-76
2021/01/21 07:43:14;;;;;;;51.70;21.08;;;-2.50;79.10;;;;;;4973916;28;20027;-77
2021/01/21 07:45:41;;;;;;;50.20;21.20;;;-2.40;79.30;;;;;;4974810;28;20093;-76
2021/01/21 07:48:21;;;;;;;57.40;23.00;;;-2.30;79.20;;;;;;4957467;28;20037;-77
2021/01/21 07:50:48;;;;;;;46.53;21.00;;;-2.30;79.20;;;;;;4974774;28;20371;-78
2021/01/21 07:53:25;;;;;;;51.45;22.23;;;-2.30;79.30;;;;;;4973426;28;20034;-77
2021/01/21 07:55:53;;;;;;;48.53;21.92;;;-2.30;79.40;;;;;;4974926;28;20508;-77
2021/01/21 07:58:21;;;;;;;52.47;21.70;;;-2.20;79.50;;;;;;4975645;28;20106;-84
2021/01/21 08:00:52;;;;;;;49.83;21.80;;;-2.20;79.70;;;;;;4977240;28;20058;-85
2021/01/21 08:03:31;;;;;;;48.88;20.67;;;-2.10;79.80;;;;;;4977818;28;20026;-83
2021/01/21 08:06:16;;;;;;;50.92;22.40;;;-2.00;79.90;;;;;;4977066;28;20041;-83
2021/01/21 08:08:54;;;;;;;47.72;20.80;;;-1.90;80.00;;;;;;4976402;28;20023;-83
2021/01/21 08:11:21;;;;;;;48.58;21.40;;;-1.90;80.00;;;;;;4974342;28;20454;-75
2021/01/21 08:13:55;;;;;;;49.95;21.40;;;-1.80;80.30;;;;;;4974082;28;20019;-76
2021/01/21 08:16:20;;;;;;;46.00;21.25;;;-1.70;80.10;;;;;;4974944;28;20106;-75
2021/01/21 08:18:46;;;;;;;51.75;23.25;;;-1.60;80.20;;;;;;4958048;28;20121;-75
2021/01/21 08:21:28;;;;;;;49.15;22.17;;;-1.50;80.60;;;;;;4974089;28;20026;-76
2021/01/21 08:24:10;;;;;;;59.75;24.45;;;-1.40;80.50;;;;;;4974748;28;20019;-76
2021/01/21 08:26:36;;;;;;;48.50;22.10;;;-1.40;81.00;;;;;;4975172;28;20035;-75
2021/01/21 08:29:09;;;;;;;48.90;20.90;;;-1.30;80.20;;;;;;4974321;28;20035;-74
2021/01/21 08:31:42;;;;;;;67.85;28.85;;;-1.30;80.20;;;;;;4973833;28;20049;-75
2021/01/21 08:34:15;;;;;;;48.67;21.60;;;-1.20;80.00;;;;;;4955906;28;20056;-77
2021/01/21 08:36:42;;;;;;;53.50;21.88;;;-1.20;80.60;;;;;;4956221;28;20062;-75
2021/01/21 08:39:10;;;;;;;49.08;22.45;;;-1.10;81.10;;;;;;4973658;28;20343;-77
2021/01/21 08:41:36;;;;;;;43.90;20.73;;;-0.90;81.10;;;;;;4973301;28;20529;-76
2021/01/21 08:44:03;;;;;;;50.33;22.50;;;-0.80;81.20;;;;;;4974325;28;20462;-76
2021/01/21 08:46:29;;;;;;;49.20;21.52;;;-0.60;81.40;;;;;;4956363;28;20821;-76
2021/01/21 08:49:06;;;;;;;46.38;21.45;;;-0.50;81.10;;;;;;4973834;28;20029;-77
2021/01/21 08:51:37;;;;;;;45.97;21.90;;;-0.40;80.70;;;;;;4971961;28;20031;-77
2021/01/21 08:54:13;;;;;;;46.10;21.80;;;-0.40;80.30;;;;;;4971879;28;20141;-76
2021/01/21 08:56:39;;;;;;;40.47;20.80;;;-0.40;80.10;;;;;;4973406;28;20377;-76
2021/01/21 08:59:28;;;;;;;47.03;21.60;;;-0.40;80.30;;;;;;4973419;28;20106;-77
2021/01/21 09:01:55;;;;;;;45.35;20.33;;;-0.40;80.60;;;;;;4973023;28;20019;-76
2021/01/21 09:04:28;;;;;;;43.90;20.92;;;-0.30;80.40;;;;;;4956151;28;20019;-76
2021/01/21 09:06:55;;;;;;;43.15;20.00;;;-0.30;80.40;;;;;;4973044;28;20537;-77
2021/01/21 09:09:26;;;;;;;47.67;19.95;;;-0.20;80.80;;;;;;4956534;28;20023;-77
2021/01/21 09:11:52;;;;;;;46.85;20.10;;;-0.10;80.80;;;;;;4971622;28;20030;-77
2021/01/21 09:14:19;;;;;;;42.22;20.02;;;0.00;80.80;;;;;;4972925;28;20022;-76
2021/01/21 09:16:49;;;;;;;42.33;19.83;;;0.00;80.70;;;;;;4972867;28;20367;-77
2021/01/21 09:19:40;;;;;;;42.95;19.92;;;0.20;80.90;;;;;;4955971;28;20122;-77
2021/01/21 09:22:11;;;;;;;42.10;18.90;;;0.20;80.70;;;;;;4971302;28;20439;-78
2021/01/21 09:25:05;;;;;;;41.97;20.08;;;0.30;80.40;;;;;;4955400;28;20077;-78
2021/01/21 09:27:35;;;;;;;41.38;19.35;;;0.30;80.20;;;;;;4972667;28;20019;-78
2021/01/21 09:30:12;;;;;;;39.38;19.08;;;0.30;80.20;;;;;;4973009;28;20015;-78
2021/01/21 09:32:44;;;;;;;41.13;20.48;;;0.40;80.50;;;;;;4973316;28;20083;-79
2021/01/21 09:35:18;;;;;;;42.53;19.70;;;0.50;80.40;;;;;;4956407;28;20082;-78
2021/01/21 09:37:53;;;;;;;36.90;19.85;;;0.60;80.50;;;;;;4973205;28;20027;-77
2021/01/21 09:40:23;;;;;;;41.85;20.48;;;0.60;80.30;;;;;;4956413;28;20033;-78
2021/01/21 09:43:15;;;;;;;37.92;19.20;;;0.60;80.30;;;;;;4974833;28;20105;-85
2021/01/21 09:45:48;;;;;;;46.75;21.30;;;0.70;80.00;;;;;;4961942;28;20030;-87
2021/01/21 09:48:34;;;;;;;39.72;20.48;;;0.70;79.90;;;;;;4981277;28;20035;-83
2021/01/21 09:51:00;;;;;;;38.45;19.02;;;0.70;79.70;;;;;;4976942;28;20030;-84
2021/01/21 09:53:26;;;;;;;44.13;21.77;;;0.70;79.60;;;;;;4974146;28;20358;-83
2021/01/21 09:55:57;;;;;;;46.38;21.98;;;0.70;79.50;;;;;;4976747;28;20030;-83
2021/01/21 09:58:24;;;;;;;37.15;19.45;;;0.70;79.60;;;;;;4976516;28;20034;-83
2021/01/21 10:00:51;;;;;;;44.33;20.75;;;0.70;79.70;;;;;;4975720;28;20414;-84
2021/01/21 10:03:18;;;;;;;41.10;20.52;;;0.70;79.90;;;;;;4974594;28;20090;-84
2021/01/21 10:05:45;;;;;;;45.35;21.58;;;0.80;80.00;;;;;;4975302;28;20029;-84
2021/01/21 10:08:10;;;;;;;48.80;21.23;;;0.80;80.00;;;;;;4974828;28;20438;-84
2021/01/21 10:10:36;;;;;;;43.55;21.52;;;0.90;79.80;;;;;;4974762;28;20074;-84
2021/01/21 10:13:02;;;;;;;46.80;21.88;;;0.80;79.60;;;;;;4975005;28;20107;-85
2021/01/21 10:15:28;;;;;;;43.40;22.27;;;0.90;79.80;;;;;;4973559;28;20117;-83
2021/01/21 10:17:54;;;;;;;73.55;36.60;;;0.90;80.30;;;;;;4975788;28;20062;-83
2021/01/21 10:20:19;;;;;;;99.55;43.03;;;1.10;80.30;;;;;;4977958;28;20495;-83
2021/01/21 10:22:45;;;;;;;55.28;24.85;;;1.10;80.20;;;;;;4974645;28;20034;-85
2021/01/21 10:25:11;;;;;;;49.75;22.75;;;1.20;80.10;;;;;;4974982;28;20030;-83
2021/01/21 10:27:37;;;;;;;44.42;22.23;;;1.20;79.80;;;;;;4974964;28;20034;-84
2021/01/21 10:30:07;;;;;;;45.50;21.95;;;1.20;79.80;;;;;;4975328;28;20023;-84
2021/01/21 10:32:34;;;;;;;50.88;23.02;;;1.30;79.90;;;;;;4976291;28;20030;-84
2021/01/21 10:34:59;;;;;;;47.42;22.38;;;1.40;80.20;;;;;;4973414;28;20049;-83
2021/01/21 10:37:25;;;;;;;48.80;22.65;;;1.50;80.30;;;;;;4975233;28;20106;-84
2021/01/21 10:39:52;;;;;;;42.47;21.88;;;1.60;80.30;;;;;;4978470;28;20037;-84
2021/01/21 10:42:18;;;;;;;44.30;22.67;;;1.60;80.00;;;;;;4958374;28;20370;-84
2021/01/21 10:44:44;;;;;;;47.72;21.95;;;1.70;79.90;;;;;;4974286;28;20082;-85
2021/01/21 10:47:46;;;;;;;42.88;20.77;;;1.70;79.70;;;;;;4976040;28;20505;-84
2021/01/21 10:50:12;;;;;;;42.45;21.23;;;1.70;79.60;;;;;;4976560;28;20075;-83
2021/01/21 10:52:38;;;;;;;44.95;21.08;;;1.80;79.90;;;;;;4973825;28;20031;-85
2021/01/21 10:55:04;;;;;;;41.10;21.63;;;1.80;79.70;;;;;;4977392;28;20034;-84
2021/01/21 10:57:30;;;;;;;43.55;20.98;;;1.90;80.40;;;;;;4976690;28;20478;-86
2021/01/21 10:59:55;;;;;;;42.90;22.05;;;1.90;79.60;;;;;;4977765;28;20029;-85
2021/01/21 11:02:21;;;;;;;39.33;20.33;;;1.90;79.60;;;;;;4978094;28;20027;-85
2021/01/21 11:04:47;;;;;;;43.53;21.48;;;2.00;79.50;;;;;;4980038;28;20031;-84
2021/01/21 11:07:12;;;;;;;38.88;21.67;;;2.00;79.10;;;;;;4987264;28;20031;-86
2021/01/21 11:09:39;;;;;;;41.80;20.98;;;2.00;79.20;;;;;;4985179;28;20027;-84
2021/01/21 11:12:06;;;;;;;40.53;21.48;;;2.00;79.20;;;;;;4981586;28;20026;-84
2021/01/21 11:14:33;;;;;;;43.63;22.48;;;2.00;79.50;;;;;;4980593;28;20030;-85
2021/01/21 11:16:59;;;;;;;44.05;21.60;;;2.10;80.10;;;;;;4976551;28;20035;-85
2021/01/21 11:19:25;;;;;;;45.03;21.27;;;2.10;79.40;;;;;;4977638;28;20030;-84
2021/01/21 11:21:52;;;;;;;44.85;21.48;;;2.10;79.30;;;;;;4977845;28;20155;-85
2021/01/21 11:24:18;;;;;;;41.72;20.75;;;2.10;79.20;;;;;;4976887;28;20023;-83
2021/01/21 11:26:44;;;;;;;41.67;21.10;;;2.10;79.30;;;;;;4976978;28;20023;-85
2021/01/21 11:29:09;;;;;;;39.78;21.10;;;2.10;79.20;;;;;;4977396;28;20385;-84
2021/01/21 11:31:35;;;;;;;42.53;21.88;;;2.20;79.40;;;;;;4978115;28;20470;-84
2021/01/21 11:34:01;;;;;;;43.40;22.52;;;2.20;79.40;;;;;;4978296;28;20050;-83
2021/01/21 11:36:26;;;;;;;35.95;19.40;;;2.30;79.60;;;;;;4960520;28;20031;-84
2021/01/21 11:38:52;;;;;;;47.33;22.83;;;2.30;79.30;;;;;;4979680;28;20086;-85
2021/01/21 11:41:18;;;;;;;41.25;19.88;;;2.40;79.70;;;;;;4961717;28;20404;-86
2021/01/21 11:43:44;;;;;;;42.90;22.75;;;2.40;79.60;;;;;;4979525;28;20084;-84
2021/01/21 11:46:09;;;;;;;45.78;22.10;;;2.50;79.70;;;;;;4979021;28;20050;-87
2021/01/21 11:48:35;;;;;;;41.05;20.98;;;2.60;79.50;;;;;;4980672;28;20062;-87
2021/01/21 11:51:01;;;;;;;48.67;25.15;;;2.60;79.30;;;;;;4979766;28;20038;-87
2021/01/21 11:53:26;;;;;;;46.20;22.60;;;2.70;79.30;;;;;;4980346;28;20041;-88
2021/01/21 11:55:52;;;;;;;42.88;21.75;;;2.70;79.40;;;;;;4981246;28;20106;-86
2021/01/21 11:58:18;;;;;;;39.72;21.20;;;2.80;79.30;;;;;;4962799;28;20039;-84
2021/01/21 12:00:44;;;;;;;39.08;19.98;;;2.90;79.00;;;;;;4980354;28;20458;-87
2021/01/21 12:03:09;;;;;;;42.60;20.25;;;2.90;78.30;;;;;;4962102;28;20502;-87
2021/01/21 12:05:35;;;;;;;42.85;22.13;;;2.90;78.10;;;;;;4979054;28;20055;-86
2021/01/21 12:08:01;;;;;;;37.40;20.45;;;2.90;78.40;;;;;;4962795;28;20032;-87
2021/01/21 12:10:26;;;;;;;35.90;18.77;;;2.90;77.80;;;;;;4980993;28;20039;-86
2021/01/21 12:12:52;;;;;;;38.63;20.42;;;2.80;77.60;;;;;;4982743;28;20113;-85
2021/01/21 12:15:18;;;;;;;32.78;18.63;;;2.70;78.00;;;;;;4963428;28;20128;-85
2021/01/21 12:17:44;;;;;;;35.17;19.50;;;2.60;77.10;;;;;;4978047;28;20141;-87
2021/01/21 12:20:10;;;;;;;37.08;18.77;;;2.50;76.90;;;;;;4962720;28;20030;-87
2021/01/21 12:22:42;;;;;;;37.03;18.60;;;2.30;76.70;;;;;;4979504;28;20055;-87
2021/01/21 12:25:17;;;;;;;36.05;18.25;;;2.20;76.90;;;;;;4981095;28;20023;-88
2021/01/21 12:27:43;;;;;;;36.05;19.52;;;2.10;77.90;;;;;;4965319;28;20037;-86
2021/01/21 12:30:09;;;;;;;36.15;19.52;;;2.00;77.30;;;;;;4964046;28;20086;-87
2021/01/21 12:32:35;;;;;;;39.05;20.27;;;1.90;77.10;;;;;;4979097;28;20027;-85
2021/01/21 12:35:01;;;;;;;37.90;19.55;;;1.70;77.10;;;;;;4962347;28;20047;-87
2021/01/21 12:37:26;;;;;;;37.45;19.45;;;1.60;77.80;;;;;;4957962;29;20047;-88
2021/01/21 12:39:52;;;;;;;37.75;19.17;;;1.60;77.60;;;;;;4959121;29;20023;-86
2021/01/21 12:42:18;;;;;;;40.10;19.30;;;1.60;78.30;;;;;;4957790;29;20336;-86